Nearby METAR Reports

 

KPIA - Peoria, Illinois, USA
Distance from station: SSW 11mi, 18km
Updated: 05/26/2018 6:54pm
Clear
Clear
 Wind from SSW
Wind: SSW 6 mph , 9 km/h
Temperature: 82°F , 28°C
Heat Index: 86°F , 30°C
Dew Point: 72°F , 22°C
Humidity: 70%
Barometer: 29.75 inHg , 1007.5 hPa
Clouds: Clear
Visibility: 10 miles , 16 km
2018/05/26 23:54 KPIA 262354Z 20005KT 10SM CLR 28/22 A2975 RMK AO2 SLP070 T02830222 10317 20283 56006
KC75 - Lacon, Illinois, USA
Distance from station: NE 18mi, 30km
Updated: 05/26/2018 7:55pm
Clear
Clear
 Wind from calm
Wind: Calm
Temperature: 81°F , 27°C
Heat Index: 84°F , 29°C
Dew Point: 68°F , 20°C
Humidity: 66%
Barometer: 29.75 inHg , 1007.5 hPa
Clouds: Clear
Visibility: 10 miles , 16 km
2018/05/27 00:55 KC75 270055Z AUTO 00000KT 10SM CLR 27/20 A2975 RMK AO2 T02710199
 
KGBG - Galesburg, Illinois, USA
Distance from station: W 43mi, 69km
Updated: 05/26/2018 7:55pm
Clear
Clear
 Wind from SSW
Wind: SSW 5 mph , 7 km/h
Temperature: 82°F , 28°C
Heat Index: 86°F , 30°C
Dew Point: 72°F , 22°C
Humidity: 70%
Barometer: 29.78 inHg , 1008.5 hPa
Clouds: Clear
Visibility: 10 miles , 16 km
2018/05/27 00:55 KGBG 270055Z AUTO 20004KT 10SM CLR 28/22 A2978 RMK AO2 T02760216
KBMI - Bloomington/Norm, Illinois, USA
Distance from station: ESE 44mi, 71km
Updated: 05/26/2018 6:56pm
Clear
Clear
 Wind from WSW
Wind: WSW 8 mph , 13 km/h
Temperature: 84°F , 29°C
Heat Index: 85°F , 29°C
Dew Point: 63°F , 17°C
Humidity: 48%
Barometer: 29.79 inHg , 1008.8 hPa
Clouds: Clear
Visibility: 10 miles , 16 km
2018/05/26 23:56 KBMI 262356Z 25007KT 10SM CLR 29/17 A2979 RMK AO2 SLP097 T02890172 10317 20289 55001
 
KVYS - Peru, Illinois, USA
Distance from station: NNE 44mi, 71km
Updated: 12/31/1969 6:00pm
NOT Current
unable to load KVYS data RC=404 Not Found
unable to load KVYS data RC=404 Not Found
 
KAAA - Lincoln, Illinois, USA
Distance from station: SSE 48mi, 77km
Updated: 05/26/2018 7:55pm
Clear
Clear
 Wind from calm
Wind: Calm
Temperature: 82°F , 28°C
Heat Index: 85°F , 29°C
Dew Point: 68°F , 20°C
Humidity: 62%
Barometer: 29.78 inHg , 1008.5 hPa
Clouds: Clear
Visibility: 10 miles , 16 km
2018/05/27 00:55 KAAA 270055Z AUTO 00000KT 10SM CLR 28/20 A2978 RMK AO2 T02830199
 
KPNT - Pontiac, Illinois, USA
Distance from station: E 53mi, 85km
Updated: 05/26/2018 7:55pm
Clear
Clear
 Wind from SW
Wind: SW 6 mph , 9 km/h
Temperature: 84°F , 29°C
Heat Index: 86°F , 30°C
Dew Point: 66°F , 19°C
Humidity: 55%
Barometer: 29.78 inHg , 1008.5 hPa
Clouds: Clear
Visibility: 10 miles , 16 km
2018/05/27 00:55 KPNT 270055Z AUTO 23005KT 10SM CLR 29/19 A2978 RMK AO2 T02850194
KMQB - Macomb Muni, Illinois, USA
Distance from station: WSW 58mi, 93km
Updated: 05/26/2018 7:55pm
Clear
Clear
 Wind from calm
Wind: Calm
Temperature: 73°F , 23°C
Dew Point: 66°F , 19°C
Humidity: 78%
Barometer: 29.78 inHg , 1008.5 hPa
Clouds: Clear
Visibility: 10 miles , 16 km
2018/05/27 00:55 KMQB 270055Z AUTO 00000KT 10SM CLR 23/19 A2978 RMK AO2 LTG DSNT S T02320186
 
KMLI - Moline/Quad City, Illinois, USA
Distance from station: NW 64mi, 103km
Updated: 05/26/2018 7:52pm
Clear
Clear
 Wind from calm
Wind: Calm
Temperature: 82°F , 28°C
Heat Index: 87°F , 31°C
Dew Point: 73°F , 23°C
Humidity: 74%
Barometer: 29.74 inHg , 1007.1 hPa
Clouds: Clear
Visibility: 10 miles , 16 km
2018/05/27 00:52 KMLI 270052Z 00000KT 10SM CLR 28/23 A2974 RMK AO2 SLP065 T02780228
KSQI - Sterling Rockfal, Illinois, USA
Distance from station: N 64mi, 103km
Updated: 05/26/2018 7:56pm

 
2018/05/27 00:56 KSQI 270056Z AUTO RMK AO2 SLPNO PWINO FZRANO RVRNO PNO $
 
KSPI - Springfield, Illinois, USA
Distance from station: S 67mi, 108km
Updated: 05/26/2018 7:52pm
Clear
Clear
 Wind from S
Wind: S 6 mph , 9 km/h
Temperature: 81°F , 27°C
Heat Index: 85°F , 29°C
Dew Point: 72°F , 22°C
Humidity: 74%
Barometer: 29.77 inHg , 1008.1 hPa
Clouds: Clear
Visibility: 10 miles , 16 km
2018/05/27 00:52 KSPI 270052Z 17005KT 10SM CLR 27/22 A2977 RMK AO2 SLP076 T02720217
KDVN - Davenport/Quad C, Iowa, USA
Distance from station: NW 74mi, 120km
Updated: 05/26/2018 7:52pm

 Wind from W
Wind: W 5 mph , 7 km/h
Temperature: 86°F , 30°C
Heat Index: 88°F , 31°C
Dew Point: 64°F , 18°C
Humidity: 49%
Barometer: 29.77 inHg , 1008.1 hPa
Visibility: 10 miles , 16 km
2018/05/27 00:52 KDVN 270052Z AUTO 26004KT 10SM 30/18 A2977 RMK AO2 SLP071 T03000178 $